createdAt,value
2023-02-03T00:00:07.878Z,101563.25
2023-02-03T00:02:35.570Z,101552.25
2023-02-03T00:05:03.252Z,101554.78
2023-02-03T00:07:31.024Z,101549.72
2023-02-03T00:09:58.787Z,101548.03
2023-02-03T00:12:26.557Z,101554.78
2023-02-03T00:14:55.628Z,101543.56
2023-02-03T00:17:23.273Z,101547.91
2023-02-03T00:19:50.965Z,101550.56
2023-02-03T00:22:18.667Z,101569.84
2023-02-03T00:24:46.437Z,101559.47
2023-02-03T00:27:14.275Z,101569.97
2023-02-03T00:29:41.920Z,101586.97
2023-02-03T00:32:11.032Z,101587.06
2023-02-03T00:34:38.741Z,101594.78
2023-02-03T00:37:06.415Z,101605.34
2023-02-03T00:39:34.045Z,101582.38
2023-02-03T00:42:01.740Z,101579.06
2023-02-03T00:44:29.387Z,101578.03
2023-02-03T00:46:57.082Z,101562.44
2023-02-03T00:49:26.260Z,101576.59
2023-02-03T00:51:54.295Z,101577.41
2023-02-03T00:54:22.087Z,101564.38
2023-02-03T00:56:49.746Z,101564.38
2023-02-03T00:59:17.383Z,101574.94
2023-02-03T01:01:45.046Z,101580.91
2023-02-03T01:04:12.735Z,101579.94
2023-02-03T01:06:42.664Z,101572.19
2023-02-03T01:09:10.450Z,101567.69
2023-02-03T01:11:38.089Z,101545.59
2023-02-03T01:14:05.791Z,101550.00
2023-02-03T01:16:36.343Z,101554.41
2023-02-03T01:19:04.565Z,101534.53
2023-02-03T01:21:32.346Z,101536.16
2023-02-03T01:24:01.405Z,101540.53
2023-02-03T01:26:29.184Z,101545.69
2023-02-03T01:28:58.308Z,101543.13
2023-02-03T01:31:28.353Z,101516.78
2023-02-03T01:33:57.345Z,101508.06
2023-02-03T01:36:26.524Z,101499.50
2023-02-03T01:38:54.644Z,101504.56
2023-02-03T01:41:25.905Z,101509.72
2023-02-03T01:43:55.029Z,101514.13
2023-02-03T01:46:27.414Z,101503.66
2023-02-03T01:48:56.973Z,101494.56
2023-02-03T01:51:24.779Z,101476.97
2023-02-03T01:53:53.390Z,101479.06
2023-02-03T01:56:22.752Z,101472.00
2023-02-03T01:58:50.944Z,101472.91
2023-02-03T02:01:19.807Z,101479.88
2023-02-03T02:03:51.212Z,101480.78
2023-02-03T02:06:18.887Z,101512.53
2023-02-03T02:08:49.011Z,101506.38
2023-02-03T02:11:18.528Z,101510.63
2023-02-03T02:13:48.568Z,101495.06
2023-02-03T02:16:19.223Z,101489.69
2023-02-03T02:19:18.902Z,101493.31
2023-02-03T02:21:59.875Z,101494.84
2023-02-03T02:24:49.319Z,101493.19
2023-02-03T02:27:28.698Z,101488.84
2023-02-03T02:30:33.128Z,101499.50
2023-02-03T02:33:11.990Z,101501.09
2023-02-03T02:35:47.993Z,101500.22
2023-02-03T02:38:22.770Z,101499.41
2023-02-03T02:40:54.330Z,101503.16
2023-02-03T02:43:24.458Z,101495.72
2023-02-03T02:45:54.648Z,101488.31
2023-02-03T02:48:28.463Z,101476.88
2023-02-03T02:50:57.767Z,101470.63
2023-02-03T02:53:28.272Z,101466.19
2023-02-03T02:55:57.332Z,101475.09
2023-02-03T02:58:25.912Z,101468.13
2023-02-03T03:00:53.592Z,101487.94
2023-02-03T03:03:22.873Z,101495.03
2023-02-03T03:05:54.024Z,101480.16
2023-02-03T03:08:24.994Z,101482.09
2023-02-03T03:10:54.675Z,101474.84
2023-02-03T03:13:25.108Z,101491.28
2023-02-03T03:15:54.896Z,101464.69
2023-02-03T03:18:25.594Z,101470.38
2023-02-03T03:20:57.037Z,101461.03
2023-02-03T03:23:28.187Z,101470.59
2023-02-03T03:26:00.421Z,101460.88
2023-02-03T03:28:44.276Z,101466.19
2023-02-03T03:31:12.026Z,101459.34
2023-02-03T03:33:39.944Z,101436.56
2023-02-03T03:36:15.749Z,101449.34
2023-02-03T03:38:46.286Z,101453.81
2023-02-03T03:41:17.836Z,101446.75
2023-02-03T03:43:46.313Z,101424.06
2023-02-03T03:46:15.558Z,101437.13
2023-02-03T03:48:47.974Z,101460.69
2023-02-03T03:51:20.300Z,101465.09
2023-02-03T03:53:49.127Z,101442.31
2023-02-03T03:56:21.973Z,101436.88
2023-02-03T03:58:50.180Z,101432.66
2023-02-03T04:01:18.260Z,101432.53
2023-02-03T04:03:47.508Z,101433.66
2023-02-03T04:06:16.769Z,101449.34
2023-02-03T04:08:44.460Z,101451.72
2023-02-03T04:11:32.184Z,101439.59
2023-02-03T04:13:59.834Z,101457.06
2023-02-03T04:16:27.704Z,101458.88
2023-02-03T04:18:55.433Z,101458.69
2023-02-03T04:21:24.472Z,101435.06
2023-02-03T04:23:52.283Z,101441.22
2023-02-03T04:26:19.944Z,101461.41
2023-02-03T04:28:47.598Z,101462.69
2023-02-03T04:31:15.359Z,101453.06
2023-02-03T04:33:43.122Z,101447.13
2023-02-03T04:36:10.995Z,101435.69
2023-02-03T04:38:40.002Z,101430.63
2023-02-03T04:41:07.658Z,101428.00
2023-02-03T04:43:35.341Z,101439.28
2023-02-03T04:46:03.134Z,101433.44
2023-02-03T04:48:30.820Z,101437.25
2023-02-03T04:51:02.592Z,101427.06
2023-02-03T04:53:30.313Z,101429.59
2023-02-03T04:55:59.471Z,101433.72
2023-02-03T04:58:27.528Z,101438.16
2023-02-03T05:00:55.774Z,101433.13
2023-02-03T05:03:25.819Z,101439.22
2023-02-03T05:05:53.978Z,101442.50
2023-02-03T05:08:22.316Z,101433.78
2023-02-03T05:10:49.971Z,101432.06
2023-02-03T05:13:19.041Z,101430.44
2023-02-03T05:15:46.677Z,101428.47
2023-02-03T05:18:14.733Z,101417.00
2023-02-03T05:20:42.384Z,101419.13
2023-02-03T05:23:10.075Z,101438.06
2023-02-03T05:25:37.775Z,101436.28
2023-02-03T05:28:05.792Z,101444.91
2023-02-03T05:30:34.902Z,101439.78
2023-02-03T05:33:02.586Z,101438.00
2023-02-03T05:35:30.247Z,101435.44
2023-02-03T05:37:59.350Z,101425.69
2023-02-03T05:40:44.687Z,101436.94
2023-02-03T05:43:12.413Z,101419.41
2023-02-03T05:45:41.548Z,101423.75
2023-02-03T05:48:09.248Z,101428.00
2023-02-03T05:50:38.727Z,101437.59
2023-02-03T05:53:07.495Z,101404.84
2023-02-03T05:55:35.563Z,101428.16
2023-02-03T05:58:03.276Z,101431.63
2023-02-03T06:00:31.414Z,101438.50
2023-02-03T06:03:02.357Z,101428.16
2023-02-03T06:05:31.489Z,101424.56
2023-02-03T06:07:59.632Z,101428.84
2023-02-03T06:10:28.322Z,101422.69
2023-02-03T06:12:56.274Z,101430.31
2023-02-03T06:15:23.939Z,101396.47
2023-02-03T06:17:51.800Z,101433.91
2023-02-03T06:20:21.578Z,101433.94
2023-02-03T06:22:49.240Z,101425.16
2023-02-03T06:25:16.971Z,101436.38
2023-02-03T06:27:44.650Z,101429.59
2023-02-03T06:30:13.526Z,101440.88
2023-02-03T06:32:41.215Z,101433.03
2023-02-03T06:35:09.461Z,101435.72
2023-02-03T06:37:38.514Z,101431.31
2023-02-03T06:40:07.474Z,101432.28
2023-02-03T06:42:35.186Z,101436.78
2023-02-03T06:45:02.862Z,101434.00
2023-02-03T06:47:30.520Z,101434.09
2023-02-03T06:49:58.180Z,101428.00
2023-02-03T06:52:25.828Z,101426.28
2023-02-03T06:54:54.866Z,101442.94
2023-02-03T06:57:22.524Z,101444.41
2023-02-03T06:59:50.192Z,101439.00
2023-02-03T07:02:17.868Z,101433.25
2023-02-03T07:04:46.008Z,101433.25
2023-02-03T07:07:13.756Z,101423.66
2023-02-03T07:09:41.685Z,101416.53
2023-02-03T07:12:10.885Z,101435.16
2023-02-03T07:14:39.400Z,101454.16
2023-02-03T07:17:07.625Z,101443.38
2023-02-03T07:19:35.277Z,101448.69
2023-02-03T07:22:02.960Z,101434.06
2023-02-03T07:24:30.590Z,101439.34
2023-02-03T07:26:58.261Z,101453.44
2023-02-03T07:29:27.305Z,101448.69
2023-02-03T07:31:55.043Z,101457.56
2023-02-03T07:34:22.824Z,101468.69
2023-02-03T07:36:50.505Z,101461.06
2023-02-03T07:39:18.174Z,101469.00
2023-02-03T07:41:45.843Z,101465.31
2023-02-03T07:44:13.963Z,101459.41
2023-02-03T07:46:44.928Z,101468.69
2023-02-03T07:49:12.999Z,101471.47
2023-02-03T07:51:40.800Z,101467.22
2023-02-03T07:54:08.527Z,101461.91
2023-02-03T07:56:36.444Z,101457.56
2023-02-03T07:59:04.478Z,101467.19
2023-02-03T08:01:34.123Z,101471.63
2023-02-03T08:04:05.313Z,101468.88
2023-02-03T08:06:33.103Z,101462.63
2023-02-03T08:09:00.816Z,101462.44
2023-02-03T08:11:28.529Z,101464.34
2023-02-03T08:13:56.791Z,101459.19
2023-02-03T08:16:24.523Z,101484.44
2023-02-03T08:18:52.200Z,101478.19
2023-02-03T08:21:21.243Z,101471.97
2023-02-03T08:23:48.880Z,101474.44
2023-02-03T08:26:16.604Z,101456.88
2023-02-03T08:28:44.310Z,101467.28
2023-02-03T08:31:12.683Z,101473.47
2023-02-03T08:33:40.464Z,101478.72
2023-02-03T08:36:08.889Z,101490.25
2023-02-03T08:38:38.029Z,101484.03
2023-02-03T08:41:10.437Z,101508.38
2023-02-03T08:43:38.223Z,101477.66
2023-02-03T08:46:06.798Z,101501.38
2023-02-03T08:48:34.532Z,101488.13
2023-02-03T08:51:02.288Z,101488.88
2023-02-03T08:53:30.037Z,101487.13
2023-02-03T08:55:59.137Z,101493.69
2023-02-03T08:58:26.830Z,101467.38
2023-02-03T09:00:55.439Z,101479.69
2023-02-03T09:03:23.237Z,101492.63
2023-02-03T09:05:50.939Z,101496.97
2023-02-03T09:08:18.639Z,101495.44
2023-02-03T09:10:46.351Z,101504.25
2023-02-03T09:13:15.367Z,101519.44
2023-02-03T09:15:43.027Z,101508.28
2023-02-03T09:18:10.752Z,101502.22
2023-02-03T09:20:38.422Z,101510.34
2023-02-03T09:23:06.512Z,101508.78
2023-02-03T09:25:34.451Z,101514.25
2023-02-03T09:28:02.757Z,101510.66
2023-02-03T09:30:32.153Z,101521.81
2023-02-03T09:33:00.067Z,101515.16
2023-02-03T09:35:29.368Z,101527.19
2023-02-03T09:37:57.029Z,101526.28
2023-02-03T09:40:28.384Z,101525.50
2023-02-03T09:43:03.279Z,101513.28
2023-02-03T09:45:33.103Z,101514.16
2023-02-03T09:48:05.283Z,101527.97
2023-02-03T09:50:35.152Z,101514.16
2023-02-03T09:53:07.291Z,101532.28
2023-02-03T09:55:36.880Z,101526.47
2023-02-03T09:58:07.200Z,101541.47
2023-02-03T10:00:39.011Z,101565.81
2023-02-03T10:03:09.708Z,101552.75
2023-02-03T10:05:52.455Z,101553.41
2023-02-03T10:08:28.802Z,101552.59
2023-02-03T10:11:13.323Z,101568.50
2023-02-03T10:13:54.421Z,101577.81
2023-02-03T10:16:35.036Z,101570.13
2023-02-03T10:19:04.548Z,101557.13
2023-02-03T10:21:37.066Z,101577.56
2023-02-03T10:24:12.208Z,101566.59
2023-02-03T10:26:40.922Z,101590.09
2023-02-03T10:29:18.712Z,101597.34
2023-02-03T10:31:49.310Z,101587.72
2023-02-03T10:34:19.287Z,101591.81
2023-02-03T10:36:55.745Z,101601.75
2023-02-03T10:39:30.988Z,101591.25
2023-02-03T10:41:58.947Z,101605.38
2023-02-03T10:44:33.145Z,101606.91
2023-02-03T10:47:02.235Z,101601.03
2023-02-03T10:49:30.608Z,101613.69
2023-02-03T10:52:02.288Z,101604.44
2023-02-03T10:54:32.666Z,101616.25
2023-02-03T10:57:05.382Z,101625.66
2023-02-03T10:59:35.409Z,101647.59
2023-02-03T11:02:10.175Z,101629.59
2023-02-03T11:04:38.214Z,101635.25
2023-02-03T11:07:08.214Z,101629.00
2023-02-03T11:09:38.301Z,101601.13
2023-02-03T11:12:10.707Z,101621.31
2023-02-03T11:14:39.558Z,101619.38
2023-02-03T11:17:10.435Z,101618.38
2023-02-03T11:19:39.391Z,101613.78
2023-02-03T11:22:07.555Z,101637.59
2023-02-03T11:24:39.545Z,101635.66
2023-02-03T11:27:10.763Z,101643.00
2023-02-03T11:29:40.662Z,101654.13
2023-02-03T11:32:18.356Z,101639.09
2023-02-03T11:34:48.843Z,101663.16
2023-02-03T11:37:28.637Z,101659.38
2023-02-03T11:40:19.014Z,101680.88
2023-02-03T11:43:00.525Z,101684.00
2023-02-03T11:45:29.805Z,101653.41
2023-02-03T11:48:01.578Z,101668.31
2023-02-03T11:50:32.031Z,101687.53
2023-02-03T11:53:08.879Z,101673.59
2023-02-03T11:55:46.452Z,101666.31
2023-02-03T11:58:39.308Z,101636.81
2023-02-03T12:01:14.690Z,101661.63
2023-02-03T12:04:15.886Z,101677.44
2023-02-03T12:07:01.362Z,101654.56
2023-02-03T12:09:40.305Z,101685.72
2023-02-03T12:12:24.824Z,101667.09
2023-02-03T12:14:58.752Z,101676.00
2023-02-03T12:17:41.373Z,101674.69
2023-02-03T12:20:40.462Z,101710.94
2023-02-03T12:23:18.505Z,101697.84
2023-02-03T12:25:58.230Z,101680.59
2023-02-03T12:28:39.241Z,101694.44
2023-02-03T12:31:12.265Z,101680.44
2023-02-03T12:33:44.351Z,101672.75
2023-02-03T12:36:16.161Z,101689.97
2023-02-03T12:38:47.348Z,101682.97
2023-02-03T12:41:18.257Z,101711.28
2023-02-03T12:43:49.448Z,101683.19
2023-02-03T12:46:19.541Z,101683.72
2023-02-03T12:48:53.043Z,101678.38
2023-02-03T12:51:31.005Z,101679.75
2023-02-03T12:54:04.240Z,101685.19
2023-02-03T12:56:39.897Z,101678.97
2023-02-03T12:59:15.372Z,101678.56
2023-02-03T13:01:48.972Z,101662.84
2023-02-03T13:04:22.535Z,101687.97
2023-02-03T13:06:55.110Z,101701.31
2023-02-03T13:09:30.019Z,101695.03
2023-02-03T13:12:03.355Z,101698.97
2023-02-03T13:14:34.419Z,101714.44
2023-02-03T13:17:07.886Z,101716.22
2023-02-03T13:19:40.065Z,101709.31
2023-02-03T13:22:12.594Z,101707.28
2023-02-03T13:24:42.750Z,101715.16
2023-02-03T13:27:18.868Z,101706.84
2023-02-03T13:29:55.027Z,101704.31
2023-02-03T13:32:39.337Z,101707.50
2023-02-03T13:35:21.553Z,101704.50
2023-02-03T13:38:04.316Z,101708.66
2023-02-03T13:40:41.290Z,101721.03
2023-02-03T13:43:17.352Z,101702.22
2023-02-03T13:45:51.061Z,101733.28
2023-02-03T13:48:22.166Z,101724.59
2023-02-03T13:50:50.687Z,101728.81
2023-02-03T13:53:20.571Z,101715.22
2023-02-03T13:55:55.885Z,101735.25
2023-02-03T13:58:25.687Z,101738.63
2023-02-03T14:01:31.146Z,101747.50
2023-02-03T14:03:59.385Z,101735.41
2023-02-03T14:07:01.182Z,101735.25
2023-02-03T14:09:42.537Z,101741.41
2023-02-03T14:12:42.983Z,101729.72
2023-02-03T14:15:24.501Z,101751.56
2023-02-03T14:17:58.512Z,101757.34
2023-02-03T14:20:53.355Z,101755.50
2023-02-03T14:23:26.808Z,101770.22
2023-02-03T14:25:56.584Z,101768.53
2023-02-03T14:28:30.122Z,101772.75
2023-02-03T14:31:10.816Z,101771.59
2023-02-03T14:33:59.443Z,101776.38
2023-02-03T14:36:43.519Z,101775.47
2023-02-03T14:39:55.105Z,101779.94
2023-02-03T14:42:39.585Z,101774.84
2023-02-03T14:45:18.271Z,101775.53
2023-02-03T14:47:53.474Z,101760.19
2023-02-03T14:50:37.067Z,101785.19
2023-02-03T14:53:28.311Z,101790.75
2023-02-03T14:56:07.837Z,101796.81
2023-02-03T14:58:38.147Z,101800.53
2023-02-03T15:01:08.361Z,101796.84
2023-02-03T15:03:37.918Z,101800.56
2023-02-03T15:06:06.711Z,101788.34
2023-02-03T15:08:39.887Z,101783.16
2023-02-03T15:11:24.512Z,101784.94
2023-02-03T15:13:52.373Z,101783.16
2023-02-03T15:16:22.966Z,101782.28
2023-02-03T15:18:56.596Z,101792.78
2023-02-03T15:21:24.394Z,101799.25
2023-02-03T15:23:52.769Z,101805.16
2023-02-03T15:26:23.478Z,101820.91
2023-02-03T15:28:59.421Z,101823.00
2023-02-03T15:31:35.537Z,101820.13
2023-02-03T15:34:07.487Z,101818.44
2023-02-03T15:36:41.901Z,101812.53
2023-02-03T15:39:17.868Z,101802.09
2023-02-03T15:41:46.296Z,101819.56
2023-02-03T15:44:20.455Z,101816.19
2023-02-03T15:46:51.709Z,101811.84
2023-02-03T15:49:21.662Z,101806.56
2023-02-03T15:51:51.152Z,101819.72
2023-02-03T15:54:24.179Z,101817.06
2023-02-03T15:56:56.991Z,101824.97
2023-02-03T15:59:26.927Z,101825.22
2023-02-03T16:01:56.179Z,101831.97
2023-02-03T16:04:24.183Z,101825.22
2023-02-03T16:06:53.944Z,101845.22
2023-02-03T16:09:29.491Z,101841.78
2023-02-03T16:12:06.485Z,101851.50
2023-02-03T16:14:35.277Z,101855.13
2023-02-03T16:17:06.281Z,101861.19
2023-02-03T16:19:38.509Z,101859.63
2023-02-03T16:22:06.434Z,101870.09
2023-02-03T16:24:40.297Z,101863.88
2023-02-03T16:27:32.660Z,101870.19
2023-02-03T16:30:51.429Z,101875.41
2023-02-03T16:33:38.238Z,101873.91
2023-02-03T16:36:29.953Z,101896.44
2023-02-03T16:39:16.846Z,101893.97
2023-02-03T16:42:02.234Z,101887.00
2023-02-03T16:44:47.417Z,101901.09
2023-02-03T16:47:42.043Z,101906.25
2023-02-03T16:50:38.292Z,101908.78
2023-02-03T16:53:07.376Z,101904.59
2023-02-03T16:55:35.255Z,101907.22
2023-02-03T16:58:02.896Z,101921.31
2023-02-03T17:00:30.571Z,101915.31
2023-02-03T17:02:58.773Z,101913.78
2023-02-03T17:05:28.231Z,101920.69
2023-02-03T17:07:56.199Z,101923.50
2023-02-03T17:10:24.479Z,101929.59
2023-02-03T17:12:52.795Z,101924.31
2023-02-03T17:15:20.465Z,101930.59
2023-02-03T17:17:48.193Z,101926.09
2023-02-03T17:20:16.016Z,101941.72
2023-02-03T17:22:45.254Z,101953.16
2023-02-03T17:25:13.113Z,101940.06
2023-02-03T17:27:40.876Z,101957.53
2023-02-03T17:30:09.617Z,101957.50
2023-02-03T17:32:37.358Z,101954.94
2023-02-03T17:35:05.243Z,101965.38
2023-02-03T17:37:34.064Z,101969.06
2023-02-03T17:53:53.909Z,101986.75
2023-02-03T17:56:25.280Z,101979.91
2023-02-03T17:58:56.383Z,101987.69
2023-02-03T18:01:25.329Z,102001.63
2023-02-03T18:03:54.623Z,101995.56
2023-02-03T18:06:23.704Z,101998.16
2023-02-03T18:08:52.186Z,101994.69
2023-02-03T18:11:20.915Z,102020.22
2023-02-03T18:13:50.855Z,102006.34
2023-02-03T18:16:25.727Z,102010.78
2023-02-03T18:18:54.615Z,102010.03
2023-02-03T18:21:23.989Z,102013.56
2023-02-03T18:23:54.046Z,102039.63
2023-02-03T18:26:21.911Z,102033.56
2023-02-03T18:28:52.599Z,102040.53
2023-02-03T18:31:20.985Z,102037.00
2023-02-03T18:33:48.898Z,102041.31
2023-02-03T18:36:17.054Z,102041.41
2023-02-03T18:38:46.464Z,102033.72
2023-02-03T18:41:16.183Z,102046.78
2023-02-03T18:43:44.664Z,102035.44
2023-02-03T18:46:15.648Z,102052.00
2023-02-03T18:48:43.366Z,102057.13
2023-02-03T18:51:11.486Z,102058.94
2023-02-03T18:53:39.441Z,102056.25
2023-02-03T18:56:08.349Z,102064.97
2023-02-03T18:58:38.009Z,102073.63
2023-02-03T19:01:06.248Z,102075.22
2023-02-03T19:03:37.571Z,102094.66
2023-02-03T19:06:10.535Z,102085.09
2023-02-03T19:08:38.313Z,102085.03
2023-02-03T19:11:06.320Z,102080.75
2023-02-03T19:13:34.004Z,102092.91
2023-02-03T19:16:02.319Z,102093.75
2023-02-03T19:18:30.568Z,102100.72
2023-02-03T19:20:59.850Z,102103.41
2023-02-03T19:23:27.674Z,102101.63
2023-02-03T19:25:55.400Z,102112.19
2023-02-03T19:28:30.544Z,102116.41
2023-02-03T19:31:07.943Z,102124.31
2023-02-03T19:33:36.637Z,102117.34
2023-02-03T19:36:06.745Z,102113.84
2023-02-03T19:38:34.505Z,102117.41
2023-02-03T19:41:02.518Z,102112.16
2023-02-03T19:43:31.067Z,102130.41
2023-02-03T19:45:58.909Z,102140.06
2023-02-03T19:48:26.902Z,102146.28
2023-02-03T19:50:54.578Z,102148.03
2023-02-03T19:53:24.274Z,102139.28
2023-02-03T19:55:52.159Z,102145.38
2023-02-03T19:58:19.913Z,102152.41
2023-02-03T20:00:47.772Z,102159.38
2023-02-03T20:03:17.684Z,102164.66
2023-02-03T20:05:45.346Z,102159.31
2023-02-03T20:08:14.826Z,102164.53
2023-02-03T20:10:45.346Z,102159.31
2023-02-03T20:13:13.497Z,102155.81
2023-02-03T20:15:41.387Z,102166.28
2023-02-03T20:18:09.386Z,102156.69
2023-02-03T20:20:37.195Z,102175.81
2023-02-03T20:23:04.982Z,102169.66
2023-02-03T20:25:32.662Z,102172.38
2023-02-03T20:28:02.474Z,102175.03
2023-02-03T20:30:30.583Z,102182.03
2023-02-03T20:32:58.664Z,102181.06
2023-02-03T20:35:26.691Z,102185.53
2023-02-03T20:37:54.895Z,102184.59
2023-02-03T20:40:24.340Z,102184.63
2023-02-03T20:42:53.151Z,102186.31
2023-02-03T20:45:23.798Z,102204.69
2023-02-03T20:47:51.670Z,102217.00
2023-02-03T20:50:23.589Z,102209.03
2023-02-03T20:52:53.616Z,102212.59
2023-02-03T20:55:23.148Z,102198.63
2023-02-03T20:57:54.184Z,102213.50
2023-02-03T21:00:25.728Z,102217.00
2023-02-03T21:03:11.425Z,102231.84
2023-02-03T21:05:40.218Z,102227.47
2023-02-03T21:08:11.957Z,102244.97
2023-02-03T21:10:40.843Z,102235.31
2023-02-03T21:13:23.633Z,102229.25
2023-02-03T21:15:54.960Z,102241.31
2023-02-03T21:18:29.947Z,102237.09
2023-02-03T21:20:57.956Z,102247.59
2023-02-03T21:23:28.056Z,102248.44
2023-02-03T21:25:55.748Z,102235.44
2023-02-03T21:28:26.488Z,102238.88
2023-02-03T21:30:55.629Z,102244.09
2023-02-03T21:33:35.327Z,102241.59
2023-02-03T21:36:03.077Z,102254.63
2023-02-03T21:38:33.140Z,102253.72
2023-02-03T21:41:01.395Z,102254.59
2023-02-03T21:43:29.547Z,102260.66
2023-02-03T21:45:58.659Z,102264.75
2023-02-03T21:48:32.102Z,102277.59
2023-02-03T21:51:02.233Z,102264.59
2023-02-03T21:53:34.496Z,102258.47
2023-02-03T21:56:17.852Z,102268.19
2023-02-03T21:58:47.416Z,102260.53
2023-02-03T22:01:17.534Z,102255.44
2023-02-03T22:03:47.662Z,102260.72
2023-02-03T22:06:37.728Z,102263.50
2023-02-03T22:09:05.461Z,102274.94
2023-02-03T22:11:33.790Z,102290.69
2023-02-03T22:14:01.472Z,102295.13
2023-02-03T22:16:30.632Z,102291.69
2023-02-03T22:18:58.358Z,102291.75
2023-02-03T22:21:27.304Z,102287.44
2023-02-03T22:23:55.245Z,102291.78
2023-02-03T22:26:23.196Z,102293.53
2023-02-03T22:28:51.113Z,102295.31
2023-02-03T22:31:19.856Z,102295.41
2023-02-03T22:33:49.296Z,102309.34
2023-02-03T22:36:17.030Z,102308.47
2023-02-03T22:38:44.691Z,102305.94
2023-02-03T22:41:13.078Z,102314.66
2023-02-03T22:43:41.190Z,102319.84
2023-02-03T22:46:09.002Z,102321.63
2023-02-03T22:48:36.808Z,102327.75
2023-02-03T22:51:05.904Z,102332.97
2023-02-03T22:53:34.702Z,102335.56
2023-02-03T22:56:02.419Z,102336.44
2023-02-03T22:58:30.528Z,102329.47
2023-02-03T23:00:58.252Z,102327.75
2023-02-03T23:03:26.009Z,102332.13
2023-02-03T23:05:53.776Z,102338.22
2023-02-03T23:08:22.866Z,102350.34
2023-02-03T23:10:50.691Z,102341.66
2023-02-03T23:13:18.399Z,102357.38
2023-02-03T23:15:46.107Z,102362.56
2023-02-03T23:18:13.836Z,102350.38
2023-02-03T23:20:41.591Z,102353.81
2023-02-03T23:23:09.391Z,102359.00
2023-02-03T23:25:38.480Z,102368.53
2023-02-03T23:28:06.286Z,102363.31
2023-02-03T23:30:34.137Z,102359.81
2023-02-03T23:33:01.801Z,102363.28
2023-02-03T23:35:46.767Z,102365.00
2023-02-03T23:38:14.666Z,102368.53
2023-02-03T23:40:43.899Z,102378.94
2023-02-03T23:43:11.896Z,102378.09
2023-02-03T23:45:39.743Z,102376.34
2023-02-03T23:48:08.056Z,102385.91
2023-02-03T23:50:35.737Z,102383.28
2023-02-03T23:53:03.490Z,102370.25
2023-02-03T23:55:31.414Z,102387.66
2023-02-03T23:58:00.546Z,102388.53
